createdAt,value
2023-04-03T00:04:55.289Z,81.89
2023-04-03T00:10:19.146Z,80.75
2023-04-03T00:15:11.498Z,80.13
2023-04-03T00:20:11.448Z,77.44
2023-04-03T00:25:11.387Z,82.79
2023-04-03T00:30:11.305Z,79.10
2023-04-03T00:35:11.250Z,80.61
2023-04-03T00:40:11.224Z,82.17
2023-04-03T00:45:11.139Z,79.68
2023-04-03T00:50:11.023Z,77.81
2023-04-03T00:55:11.040Z,77.71
2023-04-03T01:00:10.961Z,78.54
2023-04-03T01:05:10.877Z,80.40
2023-04-03T01:10:10.809Z,79.10
2023-04-03T01:15:10.734Z,77.12
2023-04-03T01:20:10.634Z,78.99
2023-04-03T01:25:10.598Z,78.58
2023-04-03T01:30:10.527Z,76.29
2023-04-03T01:35:10.446Z,75.36
2023-04-03T01:40:10.391Z,75.74
2023-04-03T01:45:10.357Z,74.81
2023-04-03T01:50:10.247Z,74.81
2023-04-03T01:55:10.204Z,76.57
2023-04-03T02:00:10.148Z,77.02
2023-04-03T02:05:10.087Z,75.88
2023-04-03T02:10:09.978Z,76.29
2023-04-03T02:15:09.960Z,76.19
2023-04-03T02:20:09.868Z,77.12
2023-04-03T02:25:09.825Z,76.09
2023-04-03T02:30:09.708Z,76.71
2023-04-03T02:35:09.840Z,75.46
2023-04-03T02:40:09.648Z,75.15
2023-04-03T02:45:09.895Z,74.11
2023-04-03T02:50:09.472Z,77.44
2023-04-03T02:55:09.406Z,76.92
2023-04-03T03:00:09.331Z,76.23
2023-04-03T03:05:09.334Z,78.23
2023-04-03T03:10:09.185Z,80.21
2023-04-03T03:15:09.160Z,79.20
2023-04-03T03:20:09.104Z,80.80
2023-04-03T03:25:09.052Z,80.69
2023-04-03T03:30:08.985Z,80.73
2023-04-03T03:35:08.881Z,79.38
2023-04-03T03:40:08.782Z,78.75
2023-04-03T03:45:08.748Z,78.44
2023-04-03T03:50:08.717Z,77.30
2023-04-03T03:55:08.616Z,77.51
2023-04-03T04:00:08.566Z,77.20
2023-04-03T04:05:08.513Z,76.78
2023-04-03T04:10:08.414Z,77.40
2023-04-03T04:15:40.825Z,77.82
2023-04-03T04:20:33.085Z,78.13
2023-04-03T04:25:32.982Z,78.69
2023-04-03T04:30:32.940Z,78.89
2023-04-03T04:35:33.011Z,79.21
2023-04-03T04:40:32.824Z,79.52
2023-04-03T04:45:32.734Z,79.66
2023-04-03T04:50:32.695Z,80.39
2023-04-03T04:55:32.633Z,80.29
2023-04-03T05:00:32.564Z,80.18
2023-04-03T05:05:32.491Z,79.59
2023-04-03T05:10:32.415Z,79.91
2023-04-03T05:15:32.368Z,79.69
2023-04-03T05:20:32.296Z,79.38
2023-04-03T05:25:32.216Z,79.69
2023-04-03T05:30:32.156Z,79.17
2023-04-03T05:35:32.077Z,79.28
2023-04-03T05:40:32.032Z,78.55
2023-04-03T05:45:31.998Z,78.86
2023-04-03T05:50:31.966Z,78.41
2023-04-03T05:55:31.831Z,78.41
2023-04-03T06:00:31.783Z,78.20
2023-04-03T06:05:31.713Z,78.00
2023-04-03T06:10:31.653Z,77.96
2023-04-03T06:15:31.602Z,77.65
2023-04-03T06:20:31.549Z,77.55
2023-04-03T06:25:31.521Z,77.09
2023-04-03T06:30:31.421Z,76.78
2023-04-03T06:35:31.332Z,76.02
2023-04-03T06:40:31.236Z,74.98
2023-04-03T06:45:31.189Z,74.63
2023-04-03T06:50:31.139Z,72.11
2023-04-03T06:55:31.065Z,67.13
2023-04-03T07:00:30.980Z,62.25
2023-04-03T07:05:30.944Z,59.31
2023-04-03T07:10:30.857Z,57.64
2023-04-03T07:15:32.756Z,56.10
2023-04-03T07:20:30.713Z,54.79
2023-04-03T07:25:30.711Z,54.10
2023-04-03T07:30:30.584Z,53.00
2023-04-03T07:35:30.541Z,50.43
2023-04-03T07:40:30.481Z,50.94
2023-04-03T07:45:30.436Z,49.41
2023-04-03T07:50:30.350Z,48.24
2023-04-03T07:55:30.483Z,47.87
2023-04-03T08:00:30.196Z,48.03
2023-04-03T08:05:30.868Z,44.85
2023-04-03T08:10:30.065Z,43.93
2023-04-03T08:15:29.999Z,41.32
2023-04-03T08:20:29.938Z,42.21
2023-04-03T08:25:29.903Z,42.25
2023-04-03T08:30:29.804Z,41.32
2023-04-03T08:35:29.813Z,40.81
2023-04-03T08:40:29.730Z,39.66
2023-04-03T08:45:29.632Z,41.58
2023-04-03T08:50:29.545Z,39.89
2023-04-03T08:55:29.496Z,37.79
2023-04-03T09:00:29.407Z,39.04
2023-04-03T09:05:29.368Z,42.49
2023-04-03T09:10:29.280Z,38.68
2023-04-03T09:15:38.498Z,40.01
2023-04-03T09:20:30.178Z,39.08
2023-04-03T09:25:30.043Z,38.88
2023-04-03T09:30:29.020Z,37.27
2023-04-03T09:35:36.341Z,37.56
2023-04-03T09:40:29.869Z,35.21
2023-04-03T09:45:28.818Z,38.19
2023-04-03T09:50:28.758Z,42.06
2023-04-03T09:55:28.744Z,43.49
2023-04-03T10:00:28.593Z,44.32
2023-04-03T10:05:28.570Z,41.77
2023-04-03T10:10:28.565Z,33.90
2023-04-03T10:15:28.480Z,32.53
2023-04-03T10:20:28.447Z,33.63
2023-04-03T10:25:28.310Z,30.70
2023-04-03T10:30:28.191Z,31.79
2023-04-03T10:35:28.157Z,31.36
2023-04-03T10:40:28.080Z,32.41
2023-04-03T10:45:28.011Z,33.17
2023-04-03T10:50:27.975Z,32.35
2023-04-03T10:55:27.901Z,31.40
2023-04-03T11:00:27.815Z,33.33
2023-04-03T11:05:27.793Z,30.60
2023-04-03T11:10:27.777Z,32.67
2023-04-03T11:15:27.617Z,28.63
2023-04-03T11:20:27.588Z,31.12
2023-04-03T11:25:27.516Z,32.17
2023-04-03T11:30:28.255Z,32.59
2023-04-03T11:35:27.364Z,31.38
2023-04-03T11:40:27.281Z,30.36
2023-04-03T11:45:27.230Z,32.04
2023-04-03T11:50:27.152Z,30.16
2023-04-03T11:55:27.123Z,30.63
2023-04-03T12:00:27.035Z,31.10
2023-04-03T12:05:26.981Z,33.15
2023-04-03T12:10:32.072Z,35.68
2023-04-03T12:15:27.838Z,30.98
2023-04-03T12:20:26.776Z,31.89
2023-04-03T12:25:26.682Z,32.07
2023-04-03T12:30:26.615Z,36.22
2023-04-03T12:35:26.592Z,34.26
2023-04-03T12:40:26.509Z,35.24
2023-04-03T12:45:26.469Z,34.50
2023-04-03T12:50:26.378Z,36.95
2023-04-03T12:55:26.302Z,37.73
2023-04-03T13:00:26.237Z,39.42
2023-04-03T13:05:26.161Z,35.95
2023-04-03T13:10:26.104Z,36.58
2023-04-03T13:15:26.061Z,35.61
2023-04-03T13:20:26.013Z,37.38
2023-04-03T13:25:25.956Z,37.68
2023-04-03T13:30:25.990Z,38.09
2023-04-03T13:35:25.760Z,37.09
2023-04-03T13:40:29.997Z,38.52
2023-04-03T13:45:26.676Z,39.28
2023-04-03T13:50:25.556Z,39.64
2023-04-03T13:55:26.614Z,40.28
2023-04-03T14:00:25.467Z,41.28
2023-04-03T14:05:25.393Z,37.74
2023-04-03T14:10:25.338Z,38.85
2023-04-03T14:15:25.250Z,40.99
2023-04-03T14:20:25.158Z,38.75
2023-04-03T14:25:25.166Z,40.97
2023-04-03T14:30:25.007Z,40.56
2023-04-03T14:35:24.967Z,40.65
2023-04-03T14:40:24.870Z,39.67
2023-04-03T14:45:24.863Z,40.79
2023-04-03T14:50:24.735Z,42.20
2023-04-03T14:55:24.698Z,41.06
2023-04-03T15:00:24.600Z,40.08
2023-04-03T15:05:24.578Z,41.63
2023-04-03T15:10:24.502Z,41.13
2023-04-03T15:15:24.451Z,39.69
2023-04-03T15:20:24.344Z,41.11
2023-04-03T15:25:24.301Z,39.60
2023-04-03T15:30:24.353Z,41.46
2023-04-03T15:35:24.227Z,41.05
2023-04-03T15:40:24.268Z,40.15
2023-04-03T15:45:24.033Z,40.86
2023-04-03T15:50:23.966Z,40.66
2023-04-03T15:55:23.913Z,40.19
2023-04-03T16:00:23.850Z,41.41
2023-04-03T16:05:23.760Z,42.22
2023-04-03T16:10:23.697Z,41.80
2023-04-03T16:15:23.647Z,41.11
2023-04-03T16:20:23.599Z,40.61
2023-04-03T16:25:23.498Z,42.17
2023-04-03T16:30:23.445Z,42.17
2023-04-03T16:35:23.379Z,43.81
2023-04-03T16:40:23.314Z,43.91
2023-04-03T16:45:23.271Z,45.40
2023-04-03T16:50:23.224Z,45.29
2023-04-03T16:55:23.128Z,44.80
2023-04-03T17:00:23.037Z,45.81
2023-04-03T17:05:22.992Z,44.00
2023-04-03T17:10:22.915Z,46.48
2023-04-03T17:15:22.835Z,45.15
2023-04-03T17:20:22.794Z,45.46
2023-04-03T17:25:22.701Z,46.72
2023-04-03T17:30:22.651Z,46.51
2023-04-03T17:35:22.586Z,47.77
2023-04-03T17:40:22.544Z,47.05
2023-04-03T17:45:22.445Z,47.69
2023-04-03T17:50:22.409Z,47.19
2023-04-03T17:55:23.110Z,48.02
2023-04-03T18:00:22.384Z,48.43
2023-04-03T18:05:22.173Z,48.14
2023-04-03T18:10:22.135Z,48.88
2023-04-03T18:15:22.048Z,49.09
2023-04-03T18:20:21.994Z,50.46
2023-04-03T18:25:21.920Z,50.35
2023-04-03T18:30:21.880Z,50.97
2023-04-03T18:35:21.802Z,51.51
2023-04-03T18:40:21.746Z,51.62
2023-04-03T18:45:21.630Z,51.95
2023-04-03T18:50:21.624Z,51.74
2023-04-03T18:55:21.550Z,52.08
2023-04-03T19:00:21.476Z,52.80
2023-04-03T19:05:21.412Z,53.31
2023-04-03T19:10:21.352Z,52.83
2023-04-03T19:15:21.238Z,53.44
2023-04-03T19:20:21.198Z,53.34
2023-04-03T19:25:21.124Z,54.50
2023-04-03T19:30:21.428Z,54.30
2023-04-03T19:35:20.989Z,54.94
2023-04-03T19:40:20.948Z,55.35
2023-04-03T19:45:20.871Z,55.56
2023-04-03T19:50:20.841Z,56.62
2023-04-03T19:55:20.745Z,56.13
2023-04-03T20:00:20.701Z,57.37
2023-04-03T20:05:20.625Z,63.38
2023-04-03T20:10:20.749Z,62.40
2023-04-03T20:15:20.485Z,64.82
2023-04-03T20:20:20.439Z,63.26
2023-04-03T20:25:43.888Z,64.43
2023-04-03T20:30:21.283Z,65.70
2023-04-03T20:35:20.231Z,66.05
2023-04-03T20:40:20.190Z,65.56
2023-04-03T20:45:20.083Z,67.54
2023-04-03T20:50:20.138Z,67.36
2023-04-03T20:55:19.963Z,67.08
2023-04-03T21:00:19.972Z,67.08
2023-04-03T21:05:19.872Z,68.43
2023-04-03T21:10:19.765Z,68.53
2023-04-03T21:15:19.692Z,69.89
2023-04-03T21:20:19.628Z,70.33
2023-04-03T21:25:19.564Z,69.50
2023-04-03T21:30:19.521Z,70.23
2023-04-03T21:35:19.471Z,70.43
2023-04-03T21:40:19.398Z,69.84
2023-04-03T21:45:19.301Z,70.78
2023-04-03T21:50:19.254Z,71.86
2023-04-03T21:55:19.179Z,71.33
2023-04-03T22:00:19.274Z,72.09
2023-04-03T22:05:19.047Z,71.58
2023-04-03T22:10:18.995Z,71.47
2023-04-03T22:15:18.912Z,72.13
2023-04-03T22:20:18.895Z,72.16
2023-04-03T22:25:18.908Z,71.75
2023-04-03T22:30:18.744Z,72.02
2023-04-03T22:35:18.656Z,72.02
2023-04-03T22:40:19.348Z,72.96
2023-04-03T22:45:18.522Z,74.15
2023-04-03T22:50:18.488Z,72.58
2023-04-03T22:55:19.682Z,72.37
2023-04-03T23:00:18.364Z,76.16
2023-04-03T23:05:18.292Z,75.63
2023-04-03T23:10:18.286Z,75.12
2023-04-03T23:15:19.004Z,74.49
2023-04-03T23:20:18.092Z,74.80
2023-04-03T23:25:18.029Z,72.92
2023-04-03T23:30:17.957Z,71.53
2023-04-03T23:35:17.886Z,74.04
2023-04-03T23:40:17.856Z,74.98
2023-04-03T23:45:17.768Z,75.85
2023-04-03T23:50:17.739Z,75.46
2023-04-03T23:55:19.472Z,75.92
